createdAt,value
2024-03-05T00:00:02.631Z,8.75
2024-03-05T00:05:02.703Z,8.75
2024-03-05T00:10:02.938Z,8.13
2024-03-05T00:15:03.167Z,8.32
2024-03-05T00:20:02.466Z,7.75
2024-03-05T00:25:02.737Z,8.23
2024-03-05T00:30:02.990Z,8.23
2024-03-05T00:35:02.228Z,8.02
2024-03-05T00:40:02.680Z,7.75
2024-03-05T00:45:02.816Z,7.50
2024-03-05T00:50:03.109Z,8.60
2024-03-05T00:55:02.568Z,8.40
2024-03-05T01:00:02.712Z,8.43
2024-03-05T01:05:02.414Z,8.70
2024-03-05T01:10:02.746Z,8.27
2024-03-05T01:15:02.917Z,8.35
2024-03-05T01:20:02.418Z,9.15
2024-03-05T01:25:02.830Z,10.23
2024-03-05T01:30:03.669Z,9.63
2024-03-05T01:35:02.833Z,9.82
2024-03-05T01:40:03.167Z,9.82
2024-03-05T01:45:02.278Z,10.35
2024-03-05T01:50:02.644Z,10.52
2024-03-05T01:55:02.941Z,10.38
2024-03-05T02:00:03.145Z,11.15
2024-03-05T02:05:02.921Z,10.98
2024-03-05T02:10:02.100Z,11.75
2024-03-05T02:15:02.215Z,10.73
2024-03-05T02:20:02.539Z,11.43
2024-03-05T02:25:02.844Z,10.45
2024-03-05T02:30:03.204Z,12.18
2024-03-05T02:35:02.399Z,11.90
2024-03-05T02:40:02.647Z,11.50
2024-03-05T02:45:02.984Z,10.05
2024-03-05T02:50:02.320Z,10.65
2024-03-05T02:55:02.612Z,10.55
2024-03-05T03:00:03.001Z,10.95
2024-03-05T03:05:02.233Z,12.00
2024-03-05T03:10:02.436Z,11.80
2024-03-05T03:15:02.665Z,11.63
2024-03-05T03:20:02.937Z,10.57
2024-03-05T03:25:02.110Z,10.90
2024-03-05T03:30:02.229Z,11.88
2024-03-05T03:35:02.574Z,11.82
2024-03-05T03:40:02.822Z,11.05
2024-03-05T03:45:03.079Z,11.82
2024-03-05T03:50:02.360Z,13.75
2024-03-05T03:55:02.661Z,14.43
2024-03-05T04:00:02.910Z,15.57
2024-03-05T04:05:03.128Z,15.55
2024-03-05T04:10:02.425Z,16.25
2024-03-05T04:15:02.625Z,16.67
2024-03-05T04:20:03.036Z,16.65
2024-03-05T04:25:02.411Z,16.67
2024-03-05T04:30:02.677Z,15.82
2024-03-05T04:35:03.068Z,15.05
2024-03-05T04:40:02.449Z,16.00
2024-03-05T04:45:02.656Z,17.77
2024-03-05T04:50:02.871Z,17.13
2024-03-05T04:55:03.178Z,15.45
2024-03-05T05:00:02.461Z,16.67
2024-03-05T05:05:02.731Z,17.45
2024-03-05T05:10:03.155Z,17.23
2024-03-05T05:15:02.369Z,18.15
2024-03-05T05:20:02.790Z,20.58
2024-03-05T05:25:03.137Z,17.83
2024-03-05T05:30:09.146Z,20.02
2024-03-05T05:35:02.936Z,19.38
2024-03-05T05:40:03.417Z,19.52
2024-03-05T05:45:02.692Z,17.90
2024-03-05T05:50:03.069Z,20.15
2024-03-05T05:55:02.366Z,19.45
2024-03-05T06:00:02.689Z,19.92
2024-03-05T06:05:03.098Z,20.90
2024-03-05T06:10:02.332Z,20.52
2024-03-05T06:15:02.580Z,22.17
2024-03-05T06:20:02.910Z,23.15
2024-03-05T06:25:02.100Z,21.55
2024-03-05T06:30:02.364Z,19.42
2024-03-05T06:35:02.574Z,21.02
2024-03-05T06:40:02.786Z,21.45
2024-03-05T06:45:03.049Z,23.30
2024-03-05T06:50:02.391Z,22.50
2024-03-05T06:55:02.670Z,22.08
2024-03-05T07:00:02.805Z,21.13
2024-03-05T07:05:03.173Z,22.15
2024-03-05T07:10:02.473Z,24.05
2024-03-05T07:15:02.603Z,24.05
2024-03-05T07:20:02.889Z,22.85
2024-03-05T07:25:03.149Z,20.52
2024-03-05T07:30:02.284Z,24.05
2024-03-05T07:35:02.489Z,24.20
2024-03-05T07:40:02.801Z,25.23
2024-03-05T07:45:03.040Z,27.33
2024-03-05T07:50:02.547Z,25.52
2024-03-05T07:55:02.869Z,25.85
2024-03-05T08:00:03.025Z,25.65
2024-03-05T08:05:02.431Z,27.52
2024-03-05T08:10:02.883Z,25.75
2024-03-05T08:15:07.073Z,28.08
2024-03-05T08:20:04.132Z,28.08
2024-03-05T08:25:02.374Z,28.50
2024-03-05T08:30:02.516Z,30.10
2024-03-05T08:35:02.697Z,29.10
2024-03-05T08:40:02.952Z,30.00
2024-03-05T08:45:02.109Z,28.17
2024-03-05T08:50:02.407Z,26.95
2024-03-05T08:55:02.620Z,27.98
2024-03-05T09:00:09.493Z,28.30
2024-03-05T09:05:02.740Z,29.23
2024-03-05T09:10:03.114Z,28.13
2024-03-05T09:15:02.642Z,27.98
2024-03-05T09:20:03.102Z,26.92
2024-03-05T09:25:02.392Z,28.70
2024-03-05T09:30:02.786Z,29.38
2024-03-05T09:35:02.983Z,27.70
2024-03-05T09:40:02.224Z,31.55
2024-03-05T09:45:02.509Z,29.75
2024-03-05T09:50:02.890Z,28.75
2024-03-05T09:55:02.387Z,29.08
2024-03-05T10:00:02.847Z,27.50
2024-03-05T10:05:03.606Z,30.35
2024-03-05T10:10:09.352Z,29.20
2024-03-05T10:15:02.560Z,27.35
2024-03-05T10:20:03.099Z,29.52
2024-03-05T10:25:02.354Z,28.38
2024-03-05T10:30:02.690Z,28.55
2024-03-05T10:35:03.047Z,23.85
2024-03-05T10:40:02.382Z,25.20
2024-03-05T10:45:02.658Z,23.80
2024-03-05T10:50:03.065Z,22.40
2024-03-05T10:55:06.178Z,22.77
2024-03-05T11:00:02.980Z,22.13
2024-03-05T11:05:02.348Z,20.45
2024-03-05T11:10:02.792Z,20.25
2024-03-05T11:15:03.047Z,20.80
2024-03-05T11:20:02.251Z,18.48
2024-03-05T11:25:02.554Z,20.10
2024-03-05T11:30:02.777Z,18.98
2024-03-05T11:35:03.171Z,19.58
2024-03-05T11:40:02.547Z,18.70
2024-03-05T11:45:02.747Z,19.80
2024-03-05T11:50:03.095Z,18.85
2024-03-05T11:55:02.316Z,18.90
2024-03-05T12:00:02.518Z,19.73
2024-03-05T12:05:02.788Z,20.08
2024-03-05T12:10:03.054Z,17.65
2024-03-05T12:15:05.576Z,17.10
2024-03-05T12:20:02.993Z,17.45
2024-03-05T12:25:02.360Z,18.05
2024-03-05T12:30:02.908Z,15.57
2024-03-05T12:35:02.334Z,15.48
2024-03-05T12:40:02.532Z,14.68
2024-03-05T12:45:02.741Z,14.55
2024-03-05T12:50:03.029Z,15.30
2024-03-05T12:55:02.343Z,14.77
2024-03-05T13:00:02.713Z,14.55
2024-03-05T13:05:02.944Z,14.00
2024-03-05T13:10:02.331Z,13.85
2024-03-05T13:15:02.466Z,12.05
2024-03-05T13:20:02.857Z,13.68
2024-03-05T13:25:02.222Z,12.23
2024-03-05T13:30:10.132Z,12.52
2024-03-05T13:35:03.220Z,12.23
2024-03-05T13:40:03.732Z,13.68
2024-03-05T13:45:02.963Z,11.98
2024-03-05T13:50:02.454Z,12.60
2024-03-05T13:55:02.733Z,12.20
2024-03-05T14:00:03.104Z,11.30
2024-03-05T14:05:02.467Z,12.00
2024-03-05T14:10:02.816Z,10.43
2024-03-05T14:15:03.180Z,10.40
2024-03-05T14:20:02.556Z,10.43
2024-03-05T14:25:02.957Z,11.00
2024-03-05T14:30:02.201Z,11.30
2024-03-05T14:35:02.558Z,10.65
2024-03-05T14:40:04.361Z,11.35
2024-03-05T14:45:03.214Z,12.55
2024-03-05T14:50:02.612Z,11.45
2024-03-05T14:55:03.049Z,13.05
2024-03-05T15:00:02.297Z,13.63
2024-03-05T15:05:02.581Z,12.70
2024-03-05T15:10:02.918Z,13.57
2024-03-05T15:15:03.232Z,14.07
2024-03-05T15:20:02.703Z,13.23
2024-03-05T15:25:02.993Z,12.27
2024-03-05T15:30:02.863Z,13.45
2024-03-05T15:35:03.200Z,12.70
2024-03-05T15:40:02.591Z,14.25
2024-03-05T15:45:02.774Z,13.52
2024-03-05T15:50:03.197Z,13.48
2024-03-05T15:55:04.366Z,13.10
2024-03-05T16:00:02.694Z,12.85
2024-03-05T16:05:17.521Z,11.88
2024-03-05T16:10:12.927Z,0
2024-03-05T16:15:02.272Z,12.98
2024-03-05T16:20:02.699Z,10.70
2024-03-05T16:25:11.645Z,9.10
2024-03-05T16:30:03.000Z,9.35
2024-03-05T16:35:02.184Z,9.02
2024-03-05T16:40:02.472Z,8.75
2024-03-05T16:45:02.753Z,9.50
2024-03-05T16:50:03.034Z,10.40
2024-03-05T16:55:02.372Z,8.73
2024-03-05T17:00:02.608Z,9.07
2024-03-05T17:05:02.829Z,9.23
2024-03-05T17:10:03.037Z,8.80
2024-03-05T17:15:02.293Z,8.50
2024-03-05T17:20:02.656Z,10.10
2024-03-05T17:25:03.000Z,8.80
2024-03-05T17:30:02.148Z,10.00
2024-03-05T17:35:02.436Z,8.68
2024-03-05T17:40:02.574Z,9.05
2024-03-05T17:45:02.790Z,9.23
2024-03-05T17:50:03.094Z,9.45
2024-03-05T17:55:02.305Z,9.18
2024-03-05T18:00:02.590Z,7.68
2024-03-05T18:05:02.737Z,8.70
2024-03-05T18:10:02.993Z,9.10
2024-03-05T18:15:02.418Z,9.55
2024-03-05T18:20:02.877Z,7.95
2024-03-05T18:25:02.120Z,8.63
2024-03-05T18:30:02.624Z,9.02
2024-03-05T18:35:03.292Z,9.18
2024-03-05T18:40:02.650Z,8.50
2024-03-05T18:45:02.893Z,9.13
2024-03-05T18:50:03.339Z,8.85
2024-03-05T18:55:02.497Z,9.05
2024-03-05T19:00:02.700Z,10.23
2024-03-05T19:05:02.938Z,10.45
2024-03-05T19:10:05.503Z,11.35
2024-03-05T19:15:03.740Z,11.32
2024-03-05T19:20:03.035Z,10.98
2024-03-05T19:25:04.371Z,11.57
2024-03-05T19:30:02.496Z,9.52
2024-03-05T19:35:03.378Z,10.95
2024-03-05T19:40:02.713Z,10.15
2024-03-05T19:45:02.928Z,13.38
2024-03-05T19:50:03.223Z,12.57
2024-03-05T19:55:02.526Z,10.82
2024-03-05T20:00:03.708Z,10.02
2024-03-05T20:05:03.085Z,11.18
2024-03-05T20:10:02.901Z,13.60
2024-03-05T20:15:03.836Z,14.00
2024-03-05T20:20:03.066Z,13.50
2024-03-05T20:25:02.425Z,11.52
2024-03-05T20:30:02.642Z,11.32
2024-03-05T20:35:02.913Z,11.40
2024-03-05T20:40:02.289Z,10.65
2024-03-05T20:45:02.432Z,11.45
2024-03-05T20:50:02.699Z,10.80
2024-03-05T20:55:02.901Z,11.10
2024-03-05T21:00:03.018Z,11.23
2024-03-05T21:05:02.253Z,10.68
2024-03-05T21:10:03.689Z,9.95
2024-03-05T21:15:02.825Z,11.25
2024-03-05T21:20:03.250Z,10.93
2024-03-05T21:25:02.546Z,12.27
2024-03-05T21:30:02.714Z,12.10
2024-03-05T21:35:03.022Z,12.82
2024-03-05T21:40:02.315Z,12.20
2024-03-05T21:45:02.559Z,11.77
2024-03-05T21:50:02.835Z,11.15
2024-03-05T21:55:03.046Z,10.60
2024-03-05T22:00:03.605Z,11.48
2024-03-05T22:05:02.990Z,11.02
2024-03-05T22:10:02.172Z,13.52
2024-03-05T22:15:03.629Z,12.38
2024-03-05T22:20:02.909Z,13.10
2024-03-05T22:25:02.252Z,13.05
2024-03-05T22:30:02.444Z,12.23
2024-03-05T22:35:02.615Z,11.13
2024-03-05T22:40:03.042Z,11.27
2024-03-05T22:45:02.227Z,10.40
2024-03-05T22:50:02.587Z,10.90
2024-03-05T22:55:02.895Z,11.55
2024-03-05T23:00:03.146Z,9.90
2024-03-05T23:05:02.516Z,9.50
2024-03-05T23:10:02.855Z,10.00
2024-03-05T23:15:03.081Z,9.85
2024-03-05T23:20:02.350Z,9.68
2024-03-05T23:25:02.741Z,9.38
2024-03-05T23:30:02.992Z,9.73
2024-03-05T23:35:02.490Z,9.65
2024-03-05T23:40:02.715Z,9.75
2024-03-05T23:45:03.006Z,11.07
2024-03-05T23:50:02.377Z,10.23
2024-03-05T23:55:05.734Z,10.82
